Time;durP1;ratioP1;P1;durP2;ratioP2;P2;SDS_P1;SDS_P2;PMS_P1;PMS_P2;Temp;Humidity;BMP_temperature;BMP_pressure;BME280_temperature;BME280_humidity;BME280_pressure;Samples;Min_cycle;Max_cycle;Signal;HPM_P1;HPM_P2
2022/09/24 00:01:40;;;;;;;3.27;1.93;;;;;;;;;;5059944;28;20309;-61
2022/09/24 00:04:10;;;;;;;4.00;2.17;;;;;;;;;;5068887;28;20229;-61
2022/09/24 00:06:39;;;;;;;3.07;2.00;;;;;;;;;;5073623;28;20551;-61
2022/09/24 00:09:08;;;;;;;2.73;2.20;;;;;;;;;;5062621;28;20286;-61
2022/09/24 00:11:36;;;;;;;3.10;2.43;;;;;;;;;;5070882;28;20198;-61
2022/09/24 00:14:05;;;;;;;2.43;2.20;;;;;;;;;;5069705;28;20229;-61
2022/09/24 00:16:34;;;;;;;3.77;2.47;;;;;;;;;;5059553;28;20199;-61
2022/09/24 00:19:02;;;;;;;4.43;2.20;;;;;;;;;;5075278;28;20198;-61
2022/09/24 00:21:31;;;;;;;4.77;2.17;;;;;;;;;;5071233;28;20222;-61
2022/09/24 00:24:00;;;;;;;2.03;1.93;;;;;;;;;;5070494;28;20219;-61
2022/09/24 00:29:17;;;;;;;2.27;2.10;;;;;;;;;;5076179;28;20202;-61
2022/09/24 00:31:45;;;;;;;2.43;2.23;;;;;;;;;;5078342;28;20190;-61
2022/09/24 00:34:13;;;;;;;4.07;2.40;;;;;;;;;;5068982;28;20223;-61
2022/09/24 00:36:41;;;;;;;4.20;2.23;;;;;;;;;;5069985;28;20208;-61
2022/09/24 00:39:08;;;;;;;3.97;2.73;;;;;;;;;;5078144;28;20214;-61
2022/09/24 00:41:37;;;;;;;5.30;2.77;;;;;;;;;;5058948;28;20234;-62
2022/09/24 00:44:20;;;;;;;3.60;2.27;;;;;;;;;;5066952;28;20229;-61
2022/09/24 00:46:49;;;;;;;3.70;2.33;;;;;;;;;;5066336;28;20214;-61
2022/09/24 00:49:18;;;;;;;2.60;2.40;;;;;;;;;;5066689;28;20600;-62
2022/09/24 00:51:49;;;;;;;3.13;2.83;;;;;;;;;;5070117;28;20213;-61
2022/09/24 00:54:18;;;;;;;2.97;2.73;;;;;;;;;;5061902;28;20579;-61
2022/09/24 00:56:47;;;;;;;4.13;2.73;;;;;;;;;;5063214;28;20203;-61
2022/09/24 00:59:16;;;;;;;8.90;4.23;;;;;;;;;;5065859;28;20221;-61
2022/09/24 01:01:45;;;;;;;6.70;4.33;;;;;;;;;;5059156;28;20692;-61
2022/09/24 01:04:15;;;;;;;8.23;4.23;;;;;;;;;;5075442;28;20314;-61
2022/09/24 01:06:43;;;;;;;6.27;4.40;;;;;;;;;;5066800;28;20218;-61
2022/09/24 01:09:11;;;;;;;5.17;4.43;;;;;;;;;;5060290;28;20206;-62
2022/09/24 01:11:44;;;;;;;7.83;4.20;;;;;;;;;;5067459;28;20224;-61
2022/09/24 01:14:27;;;;;;;5.13;4.23;;;;;;;;;;5069190;28;20218;-61
2022/09/24 01:16:59;;;;;;;5.33;4.30;;;;;;;;;;5072050;28;20552;-61
2022/09/24 01:19:40;;;;;;;8.93;4.10;;;;;;;;;;5066367;28;20207;-61
2022/09/24 01:22:12;;;;;;;5.13;4.27;;;;;;;;;;5056776;28;20219;-61
2022/09/24 01:24:49;;;;;;;6.23;4.40;;;;;;;;;;5057742;28;20614;-61
2022/09/24 01:27:18;;;;;;;5.43;4.60;;;;;;;;;;5057896;28;20643;-61
2022/09/24 01:29:53;;;;;;;4.90;4.20;;;;;;;;;;5060197;28;20213;-61
2022/09/24 01:32:23;;;;;;;5.07;4.30;;;;;;;;;;5068572;28;20575;-61
2022/09/24 01:35:01;;;;;;;5.50;4.00;;;;;;;;;;5069799;28;20226;-61
2022/09/24 01:37:32;;;;;;;5.37;4.87;;;;;;;;;;5065373;28;20207;-61
2022/09/24 01:40:01;;;;;;;6.83;4.60;;;;;;;;;;5060719;28;20203;-61
2022/09/24 01:42:30;;;;;;;7.73;5.43;;;;;;;;;;5065584;28;20227;-62
2022/09/24 01:45:00;;;;;;;7.80;4.63;;;;;;;;;;5065044;28;20226;-61
2022/09/24 01:47:30;;;;;;;9.60;5.37;;;;;;;;;;5072338;28;20759;-61
2022/09/24 01:50:01;;;;;;;6.27;4.30;;;;;;;;;;5073795;28;20231;-61
2022/09/24 01:52:31;;;;;;;5.30;4.50;;;;;;;;;;5065718;28;20199;-61
2022/09/24 01:55:00;;;;;;;5.13;4.27;;;;;;;;;;5060388;28;20245;-61
2022/09/24 01:57:30;;;;;;;4.10;3.70;;;;;;;;;;5068907;28;20202;-62
2022/09/24 02:00:02;;;;;;;7.17;4.13;;;;;;;;;;5065681;28;20213;-61
2022/09/24 02:02:34;;;;;;;4.13;3.73;;;;;;;;;;5064945;28;20218;-61
2022/09/24 02:05:05;;;;;;;5.83;3.97;;;;;;;;;;5068313;28;20218;-61
2022/09/24 02:07:35;;;;;;;4.63;4.00;;;;;;;;;;5067892;28;20208;-61
2022/09/24 02:10:03;;;;;;;4.20;3.80;;;;;;;;;;5060403;28;20202;-61
2022/09/24 02:12:34;;;;;;;5.40;4.43;;;;;;;;;;5069795;28;20229;-61
2022/09/24 02:15:06;;;;;;;4.40;4.00;;;;;;;;;;5073262;28;20226;-61
2022/09/24 02:17:36;;;;;;;6.80;4.40;;;;;;;;;;5057401;28;20203;-61
2022/09/24 02:20:07;;;;;;;4.50;4.10;;;;;;;;;;5057744;28;20259;-62
2022/09/24 02:22:35;;;;;;;4.90;4.20;;;;;;;;;;5057628;28;20218;-61
2022/09/24 02:25:05;;;;;;;6.60;3.73;;;;;;;;;;5067727;28;20223;-61
2022/09/24 02:27:33;;;;;;;4.70;4.10;;;;;;;;;;5061876;28;20558;-61
2022/09/24 02:30:03;;;;;;;6.00;3.47;;;;;;;;;;5072321;28;20206;-62
2022/09/24 02:32:33;;;;;;;5.07;4.00;;;;;;;;;;5065319;28;20195;-61
2022/09/24 02:35:02;;;;;;;6.33;4.20;;;;;;;;;;5057107;28;20219;-61
2022/09/24 02:37:34;;;;;;;6.10;4.03;;;;;;;;;;5064738;28;20199;-61
2022/09/24 02:40:03;;;;;;;4.53;3.97;;;;;;;;;;5067010;28;20206;-61
2022/09/24 02:42:31;;;;;;;4.77;3.93;;;;;;;;;;5068319;28;20589;-61
2022/09/24 02:44:59;;;;;;;4.90;4.40;;;;;;;;;;5066102;28;20215;-61
2022/09/24 02:47:28;;;;;;;5.00;3.73;;;;;;;;;;5070344;28;20202;-61
2022/09/24 02:49:56;;;;;;;5.13;4.27;;;;;;;;;;5075688;28;20202;-61
2022/09/24 02:52:24;;;;;;;5.20;4.40;;;;;;;;;;5071712;28;20282;-61
2022/09/24 02:54:52;;;;;;;5.10;4.70;;;;;;;;;;5056662;28;20230;-61
2022/09/24 02:57:20;;;;;;;8.57;5.23;;;;;;;;;;5060141;28;20206;-61
2022/09/24 02:59:48;;;;;;;8.33;5.27;;;;;;;;;;5068062;28;20202;-61
2022/09/24 03:02:16;;;;;;;5.67;5.17;;;;;;;;;;5059897;28;20218;-61
2022/09/24 03:04:47;;;;;;;7.17;5.37;;;;;;;;;;5068988;28;20218;-60
2022/09/24 03:07:15;;;;;;;9.43;6.63;;;;;;;;;;5068038;28;20203;-61
2022/09/24 03:09:43;;;;;;;9.83;6.17;;;;;;;;;;5073110;28;20201;-61
2022/09/24 03:12:11;;;;;;;7.67;5.30;;;;;;;;;;5059949;28;20209;-61
2022/09/24 03:14:39;;;;;;;6.63;5.60;;;;;;;;;;5070052;28;20215;-61
2022/09/24 03:17:07;;;;;;;7.00;5.07;;;;;;;;;;5065272;28;20205;-61
2022/09/24 03:19:35;;;;;;;7.97;5.10;;;;;;;;;;5061035;28;20210;-61
2022/09/24 03:22:04;;;;;;;6.77;5.23;;;;;;;;;;5060663;28;20701;-61
2022/09/24 03:24:32;;;;;;;6.07;5.47;;;;;;;;;;5072763;28;20219;-61
2022/09/24 03:27:00;;;;;;;7.33;5.83;;;;;;;;;;5068585;28;20561;-61
2022/09/24 03:32:09;;;;;;;6.90;5.33;;;;;;;;;;5060808;28;20210;-61
2022/09/24 03:34:37;;;;;;;6.43;5.83;;;;;;;;;;5071548;28;20214;-61
2022/09/24 03:37:07;;;;;;;7.33;6.03;;;;;;;;;;5079266;28;20565;-62
2022/09/24 03:39:35;;;;;;;8.37;6.07;;;;;;;;;;5067700;28;20195;-62
2022/09/24 03:42:03;;;;;;;10.20;6.43;;;;;;;;;;5075752;28;20229;-62
2022/09/24 03:44:31;;;;;;;7.43;6.00;;;;;;;;;;5067552;28;20229;-62
2022/09/24 03:46:59;;;;;;;7.10;6.33;;;;;;;;;;5074870;28;20202;-62
2022/09/24 03:49:27;;;;;;;6.50;5.93;;;;;;;;;;5068315;28;20302;-63
2022/09/24 03:51:55;;;;;;;5.97;5.40;;;;;;;;;;5067740;28;20563;-63
2022/09/24 03:54:24;;;;;;;5.40;4.90;;;;;;;;;;5061940;28;20243;-63
2022/09/24 03:56:52;;;;;;;4.93;4.27;;;;;;;;;;5072944;28;20202;-63
2022/09/24 03:59:20;;;;;;;3.20;2.90;;;;;;;;;;5068648;28;20198;-62
2022/09/24 04:01:48;;;;;;;2.07;1.50;;;;;;;;;;5073351;28;20219;-62
2022/09/24 04:04:16;;;;;;;1.80;1.60;;;;;;;;;;5067252;28;20293;-62
2022/09/24 04:06:44;;;;;;;1.70;1.60;;;;;;;;;;5079086;28;20213;-62
2022/09/24 04:09:12;;;;;;;2.40;2.20;;;;;;;;;;5064662;28;20207;-63
2022/09/24 04:11:42;;;;;;;3.63;2.93;;;;;;;;;;5070840;28;20209;-62
2022/09/24 04:14:10;;;;;;;4.43;3.60;;;;;;;;;;5063166;28;20714;-62
2022/09/24 04:16:41;;;;;;;7.60;4.87;;;;;;;;;;5059410;28;20223;-62
2022/09/24 04:19:09;;;;;;;5.23;4.73;;;;;;;;;;5059467;28;20639;-62
2022/09/24 04:21:37;;;;;;;7.23;5.60;;;;;;;;;;5058704;28;20213;-62
2022/09/24 04:24:05;;;;;;;5.97;5.47;;;;;;;;;;5057372;28;20321;-62
2022/09/24 04:26:34;;;;;;;7.80;5.83;;;;;;;;;;5059049;28;20252;-62
2022/09/24 04:29:04;;;;;;;5.63;5.03;;;;;;;;;;5060288;28;20211;-62
2022/09/24 04:31:32;;;;;;;5.17;4.20;;;;;;;;;;5062772;28;20209;-63
2022/09/24 04:34:00;;;;;;;7.20;6.30;;;;;;;;;;5057423;28;20218;-62
2022/09/24 04:36:28;;;;;;;5.47;4.17;;;;;;;;;;5059034;28;20210;-63
2022/09/24 04:38:59;;;;;;;3.73;3.43;;;;;;;;;;5062905;28;20233;-63
2022/09/24 04:41:27;;;;;;;4.17;3.77;;;;;;;;;;5058082;28;20211;-62
2022/09/24 04:43:56;;;;;;;4.17;3.50;;;;;;;;;;5056737;28;20679;-62
2022/09/24 04:46:26;;;;;;;5.50;3.40;;;;;;;;;;5061217;28;20788;-63
2022/09/24 04:48:54;;;;;;;4.83;3.53;;;;;;;;;;5058474;28;20273;-62
2022/09/24 04:51:22;;;;;;;4.33;3.60;;;;;;;;;;5057746;28;20206;-62
2022/09/24 04:53:50;;;;;;;3.27;3.03;;;;;;;;;;5059274;28;20219;-63
2022/09/24 04:56:18;;;;;;;4.27;2.80;;;;;;;;;;5058757;28;20244;-64
2022/09/24 04:58:50;;;;;;;4.17;2.83;;;;;;;;;;5057344;28;20281;-65
2022/09/24 05:01:18;;;;;;;2.70;2.50;;;;;;;;;;5055638;28;20670;-64
2022/09/24 05:03:48;;;;;;;2.47;2.20;;;;;;;;;;5057804;28;20235;-62
2022/09/24 05:06:16;;;;;;;4.20;2.87;;;;;;;;;;5058178;28;20196;-64
2022/09/24 05:08:44;;;;;;;2.60;2.40;;;;;;;;;;5060488;28;20723;-62
2022/09/24 05:11:12;;;;;;;3.23;2.70;;;;;;;;;;5058465;28;20206;-63
2022/09/24 05:13:40;;;;;;;2.80;2.53;;;;;;;;;;5056638;28;20590;-64
2022/09/24 05:16:11;;;;;;;3.67;2.93;;;;;;;;;;5057888;28;20199;-63
2022/09/24 05:18:40;;;;;;;4.03;3.10;;;;;;;;;;5066869;28;20202;-63
2022/09/24 05:21:09;;;;;;;4.07;2.73;;;;;;;;;;5072671;28;20229;-64
2022/09/24 05:23:37;;;;;;;2.70;2.47;;;;;;;;;;5059025;28;20231;-63
2022/09/24 05:28:51;;;;;;;3.23;2.53;;;;;;;;;;5060686;28;20290;-63
2022/09/24 05:31:19;;;;;;;3.63;2.67;;;;;;;;;;5064093;28;20240;-63
2022/09/24 05:33:47;;;;;;;3.60;2.90;;;;;;;;;;5067621;28;20218;-64
2022/09/24 05:36:18;;;;;;;2.87;2.67;;;;;;;;;;5059476;28;20203;-63
2022/09/24 05:38:46;;;;;;;5.17;3.20;;;;;;;;;;5059628;28;20199;-63
2022/09/24 05:41:14;;;;;;;6.40;3.50;;;;;;;;;;5065882;28;20207;-65
2022/09/24 05:43:42;;;;;;;5.00;2.83;;;;;;;;;;5072143;28;20230;-64
2022/09/24 05:46:10;;;;;;;3.57;3.20;;;;;;;;;;5073295;28;20207;-64
2022/09/24 05:48:38;;;;;;;2.90;2.70;;;;;;;;;;5072024;28;20240;-64
2022/09/24 05:51:06;;;;;;;3.13;2.83;;;;;;;;;;5070734;28;20203;-64
2022/09/24 05:53:35;;;;;;;10.90;9.90;;;;;;;;;;5057839;28;20220;-64
2022/09/24 05:56:03;;;;;;;3.73;3.20;;;;;;;;;;5065842;28;20234;-64
2022/09/24 05:58:31;;;;;;;4.13;3.33;;;;;;;;;;5068832;28;20202;-64
2022/09/24 06:01:00;;;;;;;4.80;3.27;;;;;;;;;;5068902;28;20573;-64
2022/09/24 06:03:28;;;;;;;3.63;3.17;;;;;;;;;;5055803;28;20226;-64
2022/09/24 06:05:58;;;;;;;4.90;3.60;;;;;;;;;;5072833;28;20256;-63
2022/09/24 06:08:26;;;;;;;4.03;3.07;;;;;;;;;;5060977;28;20210;-63
2022/09/24 06:10:58;;;;;;;3.60;3.30;;;;;;;;;;5057847;28;20205;-64
2022/09/24 06:13:26;;;;;;;3.30;3.10;;;;;;;;;;5067006;28;20233;-63
2022/09/24 06:15:59;;;;;;;4.47;3.17;;;;;;;;;;5069065;28;20195;-62
2022/09/24 06:18:27;;;;;;;4.90;2.93;;;;;;;;;;5072397;28;20198;-61
2022/09/24 06:20:55;;;;;;;4.17;3.07;;;;;;;;;;5065061;28;20206;-61
2022/09/24 06:23:23;;;;;;;3.10;2.90;;;;;;;;;;5057000;28;20598;-61
2022/09/24 06:25:51;;;;;;;4.17;3.20;;;;;;;;;;5056746;28;20203;-62
2022/09/24 06:28:21;;;;;;;5.83;3.77;;;;;;;;;;5069412;28;20214;-61
2022/09/24 06:30:49;;;;;;;3.57;3.10;;;;;;;;;;5074382;28;20232;-64
2022/09/24 06:33:18;;;;;;;4.13;3.73;;;;;;;;;;5072351;28;20225;-63
2022/09/24 06:35:47;;;;;;;5.80;3.87;;;;;;;;;;5068127;28;20198;-63
2022/09/24 06:38:16;;;;;;;4.37;3.57;;;;;;;;;;5068379;28;20209;-63
2022/09/24 06:40:45;;;;;;;4.70;3.40;;;;;;;;;;5076004;28;20201;-64
2022/09/24 06:43:14;;;;;;;5.60;3.67;;;;;;;;;;5066445;28;20225;-63
2022/09/24 06:45:43;;;;;;;6.57;3.90;;;;;;;;;;5076583;28;20206;-63
2022/09/24 06:48:12;;;;;;;8.13;3.70;;;;;;;;;;5059460;28;20210;-64
2022/09/24 06:50:42;;;;;;;6.97;4.07;;;;;;;;;;5059969;28;20281;-64
2022/09/24 06:53:10;;;;;;;4.37;3.97;;;;;;;;;;5061330;28;20210;-63
2022/09/24 06:55:39;;;;;;;3.97;3.67;;;;;;;;;;5066213;28;20230;-63
2022/09/24 06:58:07;;;;;;;5.07;4.57;;;;;;;;;;5070615;28;20202;-63
2022/09/24 07:00:36;;;;;;;6.00;4.23;;;;;;;;;;5080130;28;20209;-63
2022/09/24 07:03:06;;;;;;;5.30;4.70;;;;;;;;;;5071393;28;20689;-63
2022/09/24 07:05:34;;;;;;;6.57;4.60;;;;;;;;;;5065535;28;20561;-63
2022/09/24 07:08:10;;;;;;;6.80;5.33;;;;;;;;;;5074981;28;20214;-63
2022/09/24 07:10:38;;;;;;;6.27;5.13;;;;;;;;;;5068259;28;20594;-63
2022/09/24 07:13:06;;;;;;;7.00;5.20;;;;;;;;;;5068236;28;20217;-63
2022/09/24 07:15:34;;;;;;;6.77;5.50;;;;;;;;;;5068770;28;20212;-63
2022/09/24 07:18:02;;;;;;;5.80;5.20;;;;;;;;;;5074363;28;20198;-63
2022/09/24 07:20:35;;;;;;;7.50;5.77;;;;;;;;;;5062254;28;20569;-63
2022/09/24 07:23:03;;;;;;;5.60;5.10;;;;;;;;;;5069782;28;20203;-63
2022/09/24 07:25:31;;;;;;;6.37;5.53;;;;;;;;;;5060448;28;20238;-63
2022/09/24 07:28:04;;;;;;;6.07;5.47;;;;;;;;;;5073163;28;20198;-63
2022/09/24 07:30:32;;;;;;;6.43;5.83;;;;;;;;;;5063235;28;20213;-63
2022/09/24 07:33:00;;;;;;;5.77;5.17;;;;;;;;;;5060490;28;20198;-63
2022/09/24 07:35:28;;;;;;;8.73;5.53;;;;;;;;;;5079319;28;20217;-62
2022/09/24 07:37:59;;;;;;;7.50;5.53;;;;;;;;;;5068404;28;20680;-63
2022/09/24 07:40:27;;;;;;;5.87;5.37;;;;;;;;;;5074793;28;20202;-63
2022/09/24 07:42:56;;;;;;;5.80;5.20;;;;;;;;;;5070524;28;20202;-63
2022/09/24 07:45:26;;;;;;;6.07;5.57;;;;;;;;;;5071044;28;20226;-63
2022/09/24 07:47:58;;;;;;;7.77;5.30;;;;;;;;;;5079011;28;20209;-63
2022/09/24 07:50:27;;;;;;;6.50;5.90;;;;;;;;;;5079544;28;20289;-63
2022/09/24 07:52:55;;;;;;;9.93;6.40;;;;;;;;;;5070273;28;20198;-63
2022/09/24 07:55:25;;;;;;;6.17;5.60;;;;;;;;;;5072179;28;20237;-61
2022/09/24 07:57:54;;;;;;;6.43;5.83;;;;;;;;;;5079878;28;20205;-61
2022/09/24 08:00:22;;;;;;;7.50;6.40;;;;;;;;;;5052206;28;20209;-61
2022/09/24 08:02:55;;;;;;;9.40;6.20;;;;;;;;;;5074977;28;20699;-61
2022/09/24 08:05:23;;;;;;;8.43;5.97;;;;;;;;;;5066677;28;20222;-61
2022/09/24 08:07:52;;;;;;;6.63;5.73;;;;;;;;;;5060001;28;20215;-61
2022/09/24 08:10:20;;;;;;;6.60;5.97;;;;;;;;;;5067611;28;20202;-61
2022/09/24 08:12:49;;;;;;;6.87;6.27;;;;;;;;;;5067512;28;20195;-61
2022/09/24 08:15:18;;;;;;;6.40;5.80;;;;;;;;;;5064016;28;20217;-61
2022/09/24 08:17:46;;;;;;;6.40;5.63;;;;;;;;;;5065722;28;20199;-61
2022/09/24 08:20:13;;;;;;;8.90;6.07;;;;;;;;;;5075742;28;20202;-61
2022/09/24 08:22:41;;;;;;;6.10;5.60;;;;;;;;;;5066420;28;20202;-61
2022/09/24 08:25:09;;;;;;;11.00;5.60;;;;;;;;;;5066811;28;20236;-61
2022/09/24 08:27:38;;;;;;;5.30;4.90;;;;;;;;;;5066894;28;20202;-61
2022/09/24 08:30:08;;;;;;;5.80;5.20;;;;;;;;;;5073528;28;20198;-61
2022/09/24 08:32:36;;;;;;;7.70;5.93;;;;;;;;;;5069381;28;20214;-61
2022/09/24 08:35:07;;;;;;;6.03;5.10;;;;;;;;;;5078649;28;20216;-61
2022/09/24 08:37:36;;;;;;;6.13;5.60;;;;;;;;;;5069180;28;20709;-61
2022/09/24 08:40:04;;;;;;;7.00;5.23;;;;;;;;;;5064317;28;20209;-62
2022/09/24 08:42:36;;;;;;;5.17;4.77;;;;;;;;;;5066875;28;20199;-61
2022/09/24 08:47:53;;;;;;;4.90;4.50;;;;;;;;;;5066765;28;20203;-61
2022/09/24 08:50:22;;;;;;;6.23;5.30;;;;;;;;;;5066906;28;20294;-60
2022/09/24 08:52:58;;;;;;;6.00;5.00;;;;;;;;;;5074394;28;20203;-61
2022/09/24 08:55:31;;;;;;;5.90;5.40;;;;;;;;;;5074516;28;20237;-61
2022/09/24 08:58:03;;;;;;;4.90;4.43;;;;;;;;;;5060559;28;20207;-61
2022/09/24 09:00:36;;;;;;;4.93;4.53;;;;;;;;;;5065985;28;20209;-61
2022/09/24 09:03:08;;;;;;;6.97;5.17;;;;;;;;;;5062374;28;20199;-60
2022/09/24 09:05:46;;;;;;;5.77;5.27;;;;;;;;;;5058619;28;20269;-61
2022/09/24 09:08:19;;;;;;;7.60;5.70;;;;;;;;;;5066932;28;20638;-60
2022/09/24 09:11:09;;;;;;;6.67;5.30;;;;;;;;;;5061416;28;20203;-61
2022/09/24 09:13:40;;;;;;;5.07;4.57;;;;;;;;;;5065636;28;20233;-61
2022/09/24 09:16:15;;;;;;;5.30;4.70;;;;;;;;;;5065533;28;20569;-61
2022/09/24 09:18:46;;;;;;;5.10;4.70;;;;;;;;;;5066011;28;20293;-61
2022/09/24 09:21:16;;;;;;;5.00;4.60;;;;;;;;;;5065690;28;20654;-61
2022/09/24 09:23:47;;;;;;;4.40;4.00;;;;;;;;;;5066301;28;20300;-61
2022/09/24 09:26:17;;;;;;;4.83;4.50;;;;;;;;;;5058719;28;20234;-61
2022/09/24 09:28:46;;;;;;;5.53;5.03;;;;;;;;;;5065391;28;20688;-61
2022/09/24 09:31:20;;;;;;;5.73;5.17;;;;;;;;;;5058633;28;20208;-61
2022/09/24 09:33:59;;;;;;;4.87;4.53;;;;;;;;;;5057873;28;20314;-61
2022/09/24 09:36:38;;;;;;;5.00;4.50;;;;;;;;;;5064980;28;20190;-61
2022/09/24 09:39:14;;;;;;;4.77;4.37;;;;;;;;;;5068724;28;20205;-61
2022/09/24 09:41:46;;;;;;;5.57;5.17;;;;;;;;;;5076951;28;20280;-61
2022/09/24 09:44:16;;;;;;;4.80;4.40;;;;;;;;;;5068241;28;20238;-61
2022/09/24 09:46:47;;;;;;;4.50;4.10;;;;;;;;;;5077328;28;20226;-61
2022/09/24 09:49:17;;;;;;;4.93;4.50;;;;;;;;;;5068059;28;20290;-60
2022/09/24 09:51:46;;;;;;;5.57;3.97;;;;;;;;;;5068737;28;20204;-61
2022/09/24 09:54:14;;;;;;;4.93;4.30;;;;;;;;;;5074432;28;20222;-61
2022/09/24 09:56:43;;;;;;;6.27;4.37;;;;;;;;;;5065101;28;20195;-61
2022/09/24 09:59:17;;;;;;;4.53;3.93;;;;;;;;;;5065277;28;20285;-61
2022/09/24 10:01:46;;;;;;;5.20;4.53;;;;;;;;;;5065651;28;20198;-61
2022/09/24 10:04:36;;;;;;;4.90;4.40;;;;;;;;;;5074504;28;20761;-61
2022/09/24 10:07:04;;;;;;;5.13;4.00;;;;;;;;;;5060585;28;20215;-61
2022/09/24 10:09:32;;;;;;;5.33;4.93;;;;;;;;;;5062490;28;20203;-63
2022/09/24 10:12:08;;;;;;;6.13;4.80;;;;;;;;;;5059783;28;20673;-61
2022/09/24 10:14:36;;;;;;;8.37;6.53;;;;;;;;;;5053354;28;20224;-62
2022/09/24 10:17:05;;;;;;;6.77;5.33;;;;;;;;;;5065604;28;20664;-63
2022/09/24 10:19:37;;;;;;;5.47;4.67;;;;;;;;;;5064984;28;20700;-62
2022/09/24 10:22:11;;;;;;;4.53;4.17;;;;;;;;;;5065551;28;20207;-62
2022/09/24 10:24:41;;;;;;;4.77;4.37;;;;;;;;;;5063227;28;20233;-62
2022/09/24 10:27:13;;;;;;;4.90;4.50;;;;;;;;;;5063552;28;20698;-62
2022/09/24 10:32:29;;;;;;;3.97;3.60;;;;;;;;;;5067473;28;20248;-62
2022/09/24 10:34:59;;;;;;;4.07;3.77;;;;;;;;;;5071445;28;20237;-62
2022/09/24 10:37:27;;;;;;;4.70;4.30;;;;;;;;;;5073870;28;20661;-62
2022/09/24 10:39:58;;;;;;;4.47;3.97;;;;;;;;;;5057369;28;20205;-62
2022/09/24 10:42:27;;;;;;;5.23;4.27;;;;;;;;;;5057382;28;20207;-62
2022/09/24 10:44:56;;;;;;;4.80;3.80;;;;;;;;;;5067746;28;20226;-62
2022/09/24 10:47:27;;;;;;;3.70;3.40;;;;;;;;;;5076830;28;20226;-62
2022/09/24 10:50:12;;;;;;;4.07;3.73;;;;;;;;;;5058990;28;20233;-62
2022/09/24 10:52:46;;;;;;;3.77;3.47;;;;;;;;;;5073581;28;20621;-62
2022/09/24 10:55:34;;;;;;;5.97;3.97;;;;;;;;;;5062166;28;20237;-62
2022/09/24 10:58:03;;;;;;;4.23;3.60;;;;;;;;;;5055182;28;20202;-62
2022/09/24 11:00:37;;;;;;;5.00;3.57;;;;;;;;;;5075987;28;20562;-62
2022/09/24 11:03:14;;;;;;;5.03;3.63;;;;;;;;;;5063210;28;20222;-62
2022/09/24 11:05:45;;;;;;;4.43;3.90;;;;;;;;;;5066028;28;20313;-62
2022/09/24 11:08:17;;;;;;;5.43;3.90;;;;;;;;;;5067951;28;20572;-62
2022/09/24 11:11:01;;;;;;;4.10;3.53;;;;;;;;;;5064183;28;20198;-62
2022/09/24 11:13:32;;;;;;;3.80;3.40;;;;;;;;;;5063008;28;20219;-62
2022/09/24 11:16:13;;;;;;;3.57;3.27;;;;;;;;;;5059060;28;20623;-62
2022/09/24 11:18:48;;;;;;;3.50;3.20;;;;;;;;;;5068075;28;20207;-62
2022/09/24 11:21:23;;;;;;;3.43;3.13;;;;;;;;;;5055147;28;20194;-62
2022/09/24 11:24:04;;;;;;;3.33;2.80;;;;;;;;;;5071680;28;20225;-62
2022/09/24 11:26:48;;;;;;;2.97;2.77;;;;;;;;;;5071185;28;20689;-61
2022/09/24 11:29:24;;;;;;;3.03;2.73;;;;;;;;;;5053793;28;20209;-61
2022/09/24 11:31:56;;;;;;;3.50;3.17;;;;;;;;;;5064795;28;20650;-61
2022/09/24 11:34:32;;;;;;;3.23;2.93;;;;;;;;;;5056923;28;20706;-61
2022/09/24 11:37:10;;;;;;;2.57;2.37;;;;;;;;;;5072594;28;20227;-61
2022/09/24 11:39:48;;;;;;;4.60;2.70;;;;;;;;;;5059717;28;20213;-62
2022/09/24 11:42:20;;;;;;;2.20;2.03;;;;;;;;;;5057881;28;20210;-61
2022/09/24 11:45:00;;;;;;;2.33;2.13;;;;;;;;;;5067887;28;20583;-61
2022/09/24 11:47:36;;;;;;;2.50;2.30;;;;;;;;;;5054292;28;20223;-61
2022/09/24 11:50:15;;;;;;;2.50;2.30;;;;;;;;;;5076320;28;20202;-61
2022/09/24 11:52:46;;;;;;;4.43;2.70;;;;;;;;;;5067279;28;20198;-61
2022/09/24 11:55:17;;;;;;;2.10;2.00;;;;;;;;;;5071911;28;20244;-61
2022/09/24 11:57:49;;;;;;;2.33;2.13;;;;;;;;;;5070857;28;20195;-61
2022/09/24 12:00:19;;;;;;;2.40;2.17;;;;;;;;;;5062971;28;20225;-61
2022/09/24 12:02:48;;;;;;;2.87;2.20;;;;;;;;;;5063802;28;20667;-61
2022/09/24 12:05:19;;;;;;;2.60;2.40;;;;;;;;;;5059970;28;20230;-61
2022/09/24 12:07:51;;;;;;;2.67;2.47;;;;;;;;;;5071981;28;20218;-61
2022/09/24 12:10:24;;;;;;;2.47;2.27;;;;;;;;;;5075972;28;20202;-61
2022/09/24 12:12:56;;;;;;;2.60;2.40;;;;;;;;;;5075043;28;20657;-61
2022/09/24 12:15:27;;;;;;;4.63;2.40;;;;;;;;;;5067005;28;20195;-61
2022/09/24 12:17:57;;;;;;;2.80;2.40;;;;;;;;;;5066433;28;20647;-61
2022/09/24 12:20:27;;;;;;;2.63;2.43;;;;;;;;;;5062022;28;20198;-61
2022/09/24 12:22:59;;;;;;;2.70;2.50;;;;;;;;;;5068510;28;20199;-61
2022/09/24 12:25:29;;;;;;;2.47;2.27;;;;;;;;;;5063306;28;20202;-61
2022/09/24 12:27:58;;;;;;;2.93;2.73;;;;;;;;;;5070280;28;20218;-61
2022/09/24 12:33:23;;;;;;;2.70;2.50;;;;;;;;;;5066948;28;20222;-61
2022/09/24 12:36:00;;;;;;;3.53;2.50;;;;;;;;;;5059828;28;20212;-61
2022/09/24 12:38:32;;;;;;;3.70;3.30;;;;;;;;;;5075006;28;20670;-61
2022/09/24 12:41:22;;;;;;;2.53;2.33;;;;;;;;;;5067106;28;20666;-61
2022/09/24 12:43:51;;;;;;;2.70;2.50;;;;;;;;;;5058981;28;20223;-61
2022/09/24 12:46:21;;;;;;;2.30;2.10;;;;;;;;;;5066800;28;20206;-61
2022/09/24 12:48:50;;;;;;;2.50;2.30;;;;;;;;;;5059349;28;20203;-63
2022/09/24 12:51:21;;;;;;;2.73;2.43;;;;;;;;;;5074019;28;20201;-60
2022/09/24 12:53:58;;;;;;;2.60;2.30;;;;;;;;;;5066853;28;20218;-60
2022/09/24 12:56:28;;;;;;;2.77;2.57;;;;;;;;;;5067440;28;20198;-60
2022/09/24 12:58:56;;;;;;;2.20;2.10;;;;;;;;;;5069945;28;20198;-62
2022/09/24 13:01:29;;;;;;;2.37;2.17;;;;;;;;;;5075298;28;20718;-60
2022/09/24 13:04:05;;;;;;;2.73;2.53;;;;;;;;;;5065072;28;20223;-60
2022/09/24 13:06:35;;;;;;;2.70;2.50;;;;;;;;;;5066910;28;20232;-60
2022/09/24 13:09:22;;;;;;;3.10;2.40;;;;;;;;;;5067578;28;20202;-60
2022/09/24 13:12:00;;;;;;;4.07;2.57;;;;;;;;;;5057424;28;20569;-60
2022/09/24 13:14:31;;;;;;;2.67;2.37;;;;;;;;;;5069190;28;20301;-59
2022/09/24 13:17:00;;;;;;;2.47;2.27;;;;;;;;;;5057332;28;20281;-60
2022/09/24 13:19:34;;;;;;;3.43;2.57;;;;;;;;;;5058163;28;20594;-59
2022/09/24 13:22:02;;;;;;;4.27;2.53;;;;;;;;;;5059286;28;20209;-60
2022/09/24 13:24:36;;;;;;;2.53;2.33;;;;;;;;;;5063122;28;20296;-60
2022/09/24 13:27:20;;;;;;;2.00;1.90;;;;;;;;;;5057096;28;20219;-60
2022/09/24 13:29:53;;;;;;;2.63;2.43;;;;;;;;;;5057080;28;20203;-60
2022/09/24 13:32:22;;;;;;;2.27;2.03;;;;;;;;;;5054004;28;20212;-60
2022/09/24 13:34:50;;;;;;;2.70;2.50;;;;;;;;;;5058631;28;20220;-60
2022/09/24 13:37:20;;;;;;;2.03;1.87;;;;;;;;;;5057395;28;20200;-60
2022/09/24 13:39:53;;;;;;;2.27;2.07;;;;;;;;;;5054919;28;20207;-59
2022/09/24 13:42:25;;;;;;;1.93;1.83;;;;;;;;;;5044848;28;20196;-59
2022/09/24 13:44:54;;;;;;;2.30;2.10;;;;;;;;;;5042427;28;21634;-61
2022/09/24 13:47:27;;;;;;;2.10;1.90;;;;;;;;;;5046285;28;20217;-62
2022/09/24 13:49:56;;;;;;;2.90;2.07;;;;;;;;;;5044786;28;20215;-61
2022/09/24 13:52:29;;;;;;;2.13;1.97;;;;;;;;;;5041413;28;20201;-61
2022/09/24 13:55:02;;;;;;;2.53;2.10;;;;;;;;;;5042902;28;20246;-61
2022/09/24 13:57:30;;;;;;;2.87;2.13;;;;;;;;;;5041987;28;20209;-61
2022/09/24 14:00:13;;;;;;;2.47;2.00;;;;;;;;;;5043129;28;20212;-61
2022/09/24 14:02:41;;;;;;;1.80;1.70;;;;;;;;;;5042258;28;20205;-61
2022/09/24 14:05:15;;;;;;;1.90;1.80;;;;;;;;;;5045051;28;20219;-61
2022/09/24 14:07:43;;;;;;;2.43;2.23;;;;;;;;;;5057906;28;20240;-61
2022/09/24 14:10:14;;;;;;;2.20;2.00;;;;;;;;;;5056599;28;20202;-60
2022/09/24 14:12:42;;;;;;;4.47;2.07;;;;;;;;;;5057722;28;20207;-61
2022/09/24 14:15:14;;;;;;;2.13;1.97;;;;;;;;;;5056941;28;20258;-60
2022/09/24 14:17:42;;;;;;;2.03;1.90;;;;;;;;;;5055401;28;20200;-61
2022/09/24 14:20:16;;;;;;;2.10;2.00;;;;;;;;;;5058053;28;20574;-60
2022/09/24 14:22:45;;;;;;;2.60;1.97;;;;;;;;;;5057903;28;20202;-60
2022/09/24 14:25:16;;;;;;;2.20;1.73;;;;;;;;;;5061271;28;20219;-60
2022/09/24 14:27:45;;;;;;;2.30;2.10;;;;;;;;;;5054610;28;20252;-61
2022/09/24 14:30:18;;;;;;;2.00;1.80;;;;;;;;;;5058385;28;20212;-61
2022/09/24 14:32:50;;;;;;;2.17;2.00;;;;;;;;;;5054969;28;20205;-61
2022/09/24 14:35:20;;;;;;;2.13;1.93;;;;;;;;;;5071087;28;20228;-61
2022/09/24 14:37:49;;;;;;;2.47;2.00;;;;;;;;;;5060109;28;20203;-61
2022/09/24 14:40:19;;;;;;;3.23;2.10;;;;;;;;;;5068830;28;20235;-61
2022/09/24 14:42:49;;;;;;;3.60;2.37;;;;;;;;;;5065880;28;20204;-61
2022/09/24 14:45:19;;;;;;;2.87;2.67;;;;;;;;;;5059679;28;20708;-60
2022/09/24 14:47:47;;;;;;;4.07;2.00;;;;;;;;;;5060080;28;20590;-60
2022/09/24 14:50:28;;;;;;;2.47;2.20;;;;;;;;;;5056679;28;20201;-60
2022/09/24 14:52:59;;;;;;;1.27;1.20;;;;;;;;;;5058041;28;20206;-60
2022/09/24 14:55:38;;;;;;;1.50;1.40;;;;;;;;;;5076049;28;20230;-60
2022/09/24 14:58:06;;;;;;;1.63;1.53;;;;;;;;;;5054517;28;20208;-59
2022/09/24 15:00:37;;;;;;;1.60;1.47;;;;;;;;;;5069451;28;20199;-59
2022/09/24 15:03:06;;;;;;;1.50;1.40;;;;;;;;;;5072533;28;20567;-59
2022/09/24 15:05:35;;;;;;;1.60;1.50;;;;;;;;;;5064295;28;20202;-59
2022/09/24 15:08:10;;;;;;;1.10;1.10;;;;;;;;;;5065830;28;20279;-63
2022/09/24 15:10:40;;;;;;;1.43;1.33;;;;;;;;;;5068489;28;20210;-63
2022/09/24 15:13:13;;;;;;;1.40;1.30;;;;;;;;;;5062881;28;20199;-63
2022/09/24 15:15:41;;;;;;;1.50;1.40;;;;;;;;;;5061128;28;20203;-64
2022/09/24 15:18:10;;;;;;;1.63;1.50;;;;;;;;;;5069010;28;20616;-63
2022/09/24 15:20:38;;;;;;;1.40;1.30;;;;;;;;;;5075937;28;20207;-62